createdAt,value
2023-03-19T00:00:11.937Z,64.46
2023-03-19T00:01:14.329Z,64.36
2023-03-19T00:02:18.200Z,64.39
2023-03-19T00:03:20.780Z,64.45
2023-03-19T00:04:24.946Z,64.50
2023-03-19T00:05:27.390Z,64.67
2023-03-19T00:06:29.776Z,64.85
2023-03-19T00:07:32.162Z,65.10
2023-03-19T00:08:34.474Z,65.37
2023-03-19T00:09:36.914Z,65.38
2023-03-19T00:10:39.986Z,65.43
2023-03-19T00:11:42.967Z,65.49
2023-03-19T00:12:45.811Z,65.52
2023-03-19T00:13:48.237Z,65.60
2023-03-19T00:14:50.628Z,65.64
2023-03-19T00:15:52.998Z,65.74
2023-03-19T00:16:55.384Z,65.79
2023-03-19T00:17:57.777Z,65.80
2023-03-19T00:19:00.423Z,65.77
2023-03-19T00:20:02.887Z,65.85
2023-03-19T00:21:05.906Z,65.92
2023-03-19T00:22:08.667Z,65.95
2023-03-19T00:23:10.998Z,65.85
2023-03-19T00:24:13.349Z,65.94
2023-03-19T00:25:15.793Z,66.01
2023-03-19T00:26:18.421Z,66.04
2023-03-19T00:27:20.759Z,66.03
2023-03-19T00:28:23.106Z,65.99
2023-03-19T00:29:25.471Z,65.92
2023-03-19T00:30:27.902Z,65.81
2023-03-19T00:31:31.097Z,65.78
2023-03-19T00:32:34.247Z,65.86
2023-03-19T00:33:36.955Z,65.86
2023-03-19T00:34:39.306Z,65.97
2023-03-19T00:35:41.734Z,66.04
2023-03-19T00:37:05.394Z,66.19
2023-03-19T00:38:07.736Z,66.20
2023-03-19T00:39:10.114Z,66.37
2023-03-19T00:40:33.560Z,66.44
2023-03-19T00:41:35.884Z,66.48
2023-03-19T00:42:38.307Z,66.58
2023-03-19T00:43:41.242Z,66.66
2023-03-19T00:44:43.729Z,66.69
2023-03-19T00:45:46.188Z,66.78
2023-03-19T00:46:48.589Z,66.80
2023-03-19T00:47:50.996Z,66.89
2023-03-19T00:48:55.585Z,66.95
2023-03-19T00:49:58.099Z,66.96
2023-03-19T00:51:09.298Z,67.00
2023-03-19T00:52:11.695Z,67.03
2023-03-19T00:53:14.014Z,67.15
2023-03-19T00:54:16.367Z,67.19
2023-03-19T00:55:19.002Z,67.18
2023-03-19T00:56:21.399Z,67.32
2023-03-19T00:57:23.855Z,67.36
2023-03-19T00:58:26.376Z,67.38
2023-03-19T00:59:28.767Z,67.44
2023-03-19T01:00:31.092Z,67.42
2023-03-19T01:01:33.646Z,67.55
2023-03-19T01:02:36.145Z,67.68
2023-03-19T01:03:38.967Z,67.72
2023-03-19T01:04:41.352Z,67.71
2023-03-19T01:05:43.818Z,67.80
2023-03-19T01:06:46.395Z,67.81
2023-03-19T01:07:48.744Z,67.86
2023-03-19T01:08:51.528Z,67.91
2023-03-19T01:09:53.887Z,67.89
2023-03-19T01:10:56.280Z,67.81
2023-03-19T01:11:58.817Z,67.93
2023-03-19T01:13:01.182Z,67.86
2023-03-19T01:14:03.672Z,67.79
2023-03-19T01:15:07.173Z,67.79
2023-03-19T01:16:10.449Z,67.75
2023-03-19T01:17:12.823Z,67.77
2023-03-19T01:18:15.334Z,67.77
2023-03-19T01:19:17.729Z,67.76
2023-03-19T01:20:20.536Z,67.80
2023-03-19T01:21:22.874Z,67.80
2023-03-19T01:22:26.233Z,67.71
2023-03-19T01:23:29.431Z,67.74
2023-03-19T01:24:32.375Z,67.74
2023-03-19T01:25:34.946Z,67.87
2023-03-19T01:26:37.337Z,67.80
2023-03-19T01:27:40.452Z,67.71
2023-03-19T01:28:43.486Z,67.88
2023-03-19T01:29:46.126Z,67.81
2023-03-19T01:30:48.732Z,67.86
2023-03-19T01:31:51.491Z,67.93
2023-03-19T01:32:53.963Z,67.89
2023-03-19T01:33:56.296Z,67.93
2023-03-19T01:34:58.667Z,67.92
2023-03-19T01:36:03.536Z,67.91
2023-03-19T01:37:05.897Z,67.89
2023-03-19T01:38:08.261Z,67.93
2023-03-19T01:39:11.822Z,67.95
2023-03-19T01:40:15.275Z,67.90
2023-03-19T01:41:17.700Z,67.75
2023-03-19T01:42:20.076Z,67.74
2023-03-19T01:43:27.509Z,67.86
2023-03-19T01:44:35.837Z,68.19
2023-03-19T01:45:40.727Z,68.45
2023-03-19T01:46:43.178Z,68.54
2023-03-19T01:47:45.901Z,68.47
2023-03-19T01:48:54.396Z,68.60
2023-03-19T01:49:57.582Z,68.68
2023-03-19T01:51:00.468Z,68.58
2023-03-19T01:52:05.115Z,68.69
2023-03-19T01:53:09.425Z,68.86
2023-03-19T01:54:17.606Z,68.67
2023-03-19T01:55:20.174Z,68.69
2023-03-19T01:56:32.516Z,68.70
2023-03-19T01:57:34.886Z,68.52
2023-03-19T01:58:38.905Z,68.38
2023-03-19T02:00:02.004Z,68.41
2023-03-19T02:01:04.550Z,68.39
2023-03-19T02:02:30.665Z,68.05
2023-03-19T02:03:34.886Z,68.16
2023-03-19T02:04:39.660Z,68.30
2023-03-19T02:05:44.967Z,68.36
2023-03-19T02:06:47.535Z,68.07
2023-03-19T02:07:50.255Z,67.99
2023-03-19T02:08:53.942Z,68.02
2023-03-19T02:09:57.112Z,68.02
2023-03-19T02:11:00.514Z,68.00
2023-03-19T02:12:03.238Z,68.03
2023-03-19T02:13:05.725Z,68.08
2023-03-19T02:14:10.031Z,68.21
2023-03-19T02:15:12.772Z,68.20
2023-03-19T02:16:16.078Z,68.14
2023-03-19T02:17:18.700Z,68.13
2023-03-19T02:18:21.968Z,68.15
2023-03-19T02:19:32.429Z,68.25
2023-03-19T02:20:46.596Z,68.27
2023-03-19T02:21:49.238Z,68.28
2023-03-19T02:23:01.378Z,68.22
2023-03-19T02:24:11.406Z,68.21
2023-03-19T02:25:32.203Z,68.07
2023-03-19T02:26:35.933Z,68.08
2023-03-19T02:27:38.320Z,68.09
2023-03-19T02:28:44.086Z,68.12
2023-03-19T02:29:49.018Z,68.14
2023-03-19T02:30:52.110Z,68.13
2023-03-19T02:31:54.536Z,68.13
2023-03-19T02:32:56.890Z,68.15
2023-03-19T02:33:59.468Z,68.17
2023-03-19T02:35:01.891Z,68.12
2023-03-19T02:36:07.618Z,68.09
2023-03-19T02:37:10.160Z,68.05
2023-03-19T02:38:14.140Z,67.96
2023-03-19T02:39:23.026Z,68.07
2023-03-19T02:40:29.991Z,68.08
2023-03-19T02:41:34.523Z,68.14
2023-03-19T02:42:37.151Z,68.16
2023-03-19T02:43:40.921Z,68.35
2023-03-19T02:44:43.683Z,68.32
2023-03-19T02:45:46.137Z,68.13
2023-03-19T02:46:48.559Z,68.15
2023-03-19T02:47:51.182Z,68.23
2023-03-19T02:48:53.757Z,68.28
2023-03-19T02:49:56.085Z,68.29
2023-03-19T02:50:59.009Z,68.14
2023-03-19T02:52:01.424Z,68.22
2023-03-19T02:53:03.830Z,68.31
2023-03-19T02:54:06.348Z,68.29
2023-03-19T02:55:09.572Z,68.33
2023-03-19T02:56:12.222Z,68.39
2023-03-19T02:57:14.733Z,68.34
2023-03-19T02:58:17.114Z,68.34
2023-03-19T02:59:19.761Z,68.33
2023-03-19T03:00:22.153Z,68.29
2023-03-19T03:01:24.735Z,68.25
2023-03-19T03:02:27.426Z,68.28
2023-03-19T03:03:30.557Z,68.22
2023-03-19T03:04:34.216Z,68.43
2023-03-19T03:05:36.739Z,68.48
2023-03-19T03:06:39.115Z,68.81
2023-03-19T03:07:43.907Z,69.06
2023-03-19T03:08:46.270Z,69.07
2023-03-19T03:09:48.590Z,69.19
2023-03-19T03:10:50.979Z,68.96
2023-03-19T03:11:53.957Z,68.90
2023-03-19T03:12:56.339Z,69.05
2023-03-19T03:13:58.669Z,68.97
2023-03-19T03:15:01.079Z,69.01
2023-03-19T03:16:03.492Z,69.06
2023-03-19T03:17:05.988Z,68.99
2023-03-19T03:18:08.304Z,68.92
2023-03-19T03:19:11.574Z,68.94
2023-03-19T03:20:15.491Z,69.05
2023-03-19T03:21:20.163Z,68.81
2023-03-19T03:22:23.316Z,68.59
2023-03-19T03:23:26.475Z,68.45
2023-03-19T03:24:28.843Z,68.52
2023-03-19T03:25:31.228Z,68.28
2023-03-19T03:26:36.045Z,68.35
2023-03-19T03:27:38.506Z,68.49
2023-03-19T03:28:41.296Z,68.52
2023-03-19T03:29:43.619Z,68.32
2023-03-19T03:30:46.591Z,68.20
2023-03-19T03:31:48.968Z,68.30
2023-03-19T03:32:52.023Z,68.14
2023-03-19T03:33:54.418Z,68.09
2023-03-19T03:34:56.735Z,67.94
2023-03-19T03:35:59.467Z,68.19
2023-03-19T03:37:01.882Z,68.22
2023-03-19T03:38:04.745Z,68.06
2023-03-19T03:39:07.106Z,68.05
2023-03-19T03:40:10.653Z,67.97
2023-03-19T03:41:12.986Z,67.99
2023-03-19T03:42:15.359Z,67.95
2023-03-19T03:43:18.244Z,67.98
2023-03-19T03:44:20.639Z,67.93
2023-03-19T03:45:23.142Z,67.96
2023-03-19T03:46:25.531Z,67.89
2023-03-19T03:47:27.911Z,67.96
2023-03-19T03:48:30.316Z,67.98
2023-03-19T03:49:32.720Z,68.05
2023-03-19T03:50:35.218Z,68.13
2023-03-19T03:51:37.709Z,68.10
2023-03-19T03:52:41.051Z,68.10
2023-03-19T03:53:43.535Z,68.25
2023-03-19T03:54:45.908Z,68.35
2023-03-19T03:55:48.341Z,68.24
2023-03-19T03:56:50.850Z,68.31
2023-03-19T03:57:53.184Z,68.24
2023-03-19T03:58:55.973Z,68.34
2023-03-19T03:59:58.662Z,68.16
2023-03-19T04:01:01.341Z,68.19
2023-03-19T04:02:04.012Z,68.27
2023-03-19T04:03:06.450Z,68.17
2023-03-19T04:04:08.860Z,68.06
2023-03-19T04:05:11.241Z,67.99
2023-03-19T04:06:18.325Z,67.97
2023-03-19T04:07:20.807Z,67.92
2023-03-19T04:08:23.575Z,67.90
2023-03-19T04:09:26.445Z,67.87
2023-03-19T04:10:28.802Z,68.08
2023-03-19T04:11:31.369Z,67.89
2023-03-19T04:12:34.999Z,67.97
2023-03-19T04:13:37.501Z,67.95
2023-03-19T04:14:40.524Z,67.87
2023-03-19T04:15:43.516Z,67.87
2023-03-19T04:16:45.985Z,67.83
2023-03-19T04:17:48.462Z,67.76
2023-03-19T04:18:50.823Z,67.80
2023-03-19T04:19:53.291Z,67.69
2023-03-19T04:20:55.570Z,67.67
2023-03-19T04:21:58.401Z,67.63
2023-03-19T04:23:02.164Z,67.64
2023-03-19T04:24:04.900Z,67.69
2023-03-19T04:25:08.402Z,67.69
2023-03-19T04:26:12.325Z,67.69
2023-03-19T04:27:14.652Z,67.75
2023-03-19T04:28:17.319Z,67.77
2023-03-19T04:29:19.774Z,67.81
2023-03-19T04:30:22.104Z,67.73
2023-03-19T04:31:24.546Z,67.73
2023-03-19T04:32:27.178Z,67.76
2023-03-19T04:33:30.011Z,67.68
2023-03-19T04:34:32.460Z,67.61
2023-03-19T04:35:34.862Z,67.56
2023-03-19T04:36:37.187Z,67.58
2023-03-19T04:37:39.824Z,67.41
2023-03-19T04:38:42.335Z,67.38
2023-03-19T04:39:44.709Z,67.51
2023-03-19T04:40:48.527Z,67.58
2023-03-19T04:41:50.984Z,67.43
2023-03-19T04:42:53.669Z,67.54
2023-03-19T04:43:56.473Z,67.64
2023-03-19T04:44:58.833Z,67.28
2023-03-19T04:46:01.301Z,67.37
2023-03-19T04:47:04.502Z,67.21
2023-03-19T04:48:07.182Z,67.16
2023-03-19T04:49:09.550Z,67.18
2023-03-19T04:50:12.919Z,67.17
2023-03-19T04:51:16.913Z,66.97
2023-03-19T04:52:19.244Z,67.13
2023-03-19T04:53:21.692Z,67.30
2023-03-19T04:54:25.300Z,67.26
2023-03-19T04:55:28.019Z,67.23
2023-03-19T04:56:30.695Z,67.06
2023-03-19T04:57:33.009Z,67.03
2023-03-19T04:58:35.428Z,67.08
2023-03-19T04:59:37.762Z,67.04
2023-03-19T05:00:40.138Z,66.97
2023-03-19T05:01:42.546Z,66.95
2023-03-19T05:02:44.965Z,66.93
2023-03-19T05:03:47.355Z,67.05
2023-03-19T05:04:49.766Z,66.96
2023-03-19T05:05:54.713Z,67.00
2023-03-19T05:06:58.303Z,67.14
2023-03-19T05:08:01.158Z,66.92
2023-03-19T05:09:04.787Z,66.81
2023-03-19T05:10:08.127Z,66.86
2023-03-19T05:11:10.467Z,66.78
2023-03-19T05:12:13.398Z,66.79
2023-03-19T05:13:16.231Z,66.91
2023-03-19T05:14:18.630Z,66.88
2023-03-19T05:15:20.981Z,66.92
2023-03-19T05:16:23.447Z,67.11
2023-03-19T05:17:26.000Z,66.95
2023-03-19T05:18:29.349Z,66.94
2023-03-19T05:19:31.854Z,67.17
2023-03-19T05:20:34.896Z,66.97
2023-03-19T05:21:38.003Z,67.02
2023-03-19T05:22:40.337Z,66.96
2023-03-19T05:23:42.652Z,67.01
2023-03-19T05:24:44.966Z,67.14
2023-03-19T05:25:47.861Z,67.23
2023-03-19T05:26:50.212Z,67.27
2023-03-19T05:27:52.800Z,67.24
2023-03-19T05:28:55.364Z,67.14
2023-03-19T05:29:57.750Z,67.25
2023-03-19T05:31:00.456Z,67.20
2023-03-19T05:32:03.344Z,67.11
2023-03-19T05:33:05.811Z,67.01
2023-03-19T05:34:08.133Z,67.09
2023-03-19T05:35:10.510Z,67.11
2023-03-19T05:36:13.164Z,66.98
2023-03-19T05:37:15.512Z,66.84
2023-03-19T05:38:17.886Z,66.82
2023-03-19T05:39:20.306Z,66.81
2023-03-19T05:40:23.927Z,66.90
2023-03-19T05:41:27.062Z,67.00
2023-03-19T05:42:29.424Z,67.19
2023-03-19T05:43:32.640Z,67.28
2023-03-19T05:44:34.977Z,67.27
2023-03-19T05:45:38.792Z,67.13
2023-03-19T05:46:41.806Z,67.21
2023-03-19T05:47:45.028Z,67.22
2023-03-19T05:48:47.678Z,67.33
2023-03-19T05:49:50.153Z,67.19
2023-03-19T05:50:55.581Z,67.13
2023-03-19T05:51:58.336Z,67.15
2023-03-19T05:53:00.953Z,67.14
2023-03-19T05:54:03.398Z,66.97
2023-03-19T05:55:06.873Z,66.94
2023-03-19T05:56:09.199Z,66.75
2023-03-19T05:57:12.003Z,66.73
2023-03-19T05:58:16.959Z,67.13
2023-03-19T05:59:19.389Z,66.83
2023-03-19T06:00:22.195Z,66.76
2023-03-19T06:01:24.679Z,66.66
2023-03-19T06:02:27.200Z,66.58
2023-03-19T06:03:29.635Z,66.23
2023-03-19T06:04:32.022Z,66.43
2023-03-19T06:05:34.726Z,66.44
2023-03-19T06:06:37.124Z,66.09
2023-03-19T06:07:39.472Z,65.66
2023-03-19T06:08:42.955Z,65.02
2023-03-19T06:09:45.402Z,65.35
2023-03-19T06:10:47.816Z,65.25
2023-03-19T06:11:50.335Z,64.72
2023-03-19T06:12:52.681Z,63.88
2023-03-19T06:13:55.068Z,63.50
2023-03-19T06:14:57.428Z,63.77
2023-03-19T06:15:59.907Z,63.05
2023-03-19T06:17:02.350Z,63.29
2023-03-19T06:18:04.761Z,63.42
2023-03-19T06:19:07.408Z,63.08
2023-03-19T06:20:11.994Z,62.90
2023-03-19T06:21:14.360Z,62.32
2023-03-19T06:22:16.893Z,62.23
2023-03-19T06:23:19.210Z,62.02
2023-03-19T06:24:21.521Z,61.73
2023-03-19T06:25:23.848Z,61.41
2023-03-19T06:26:26.496Z,61.52
2023-03-19T06:27:28.906Z,61.02
2023-03-19T06:28:31.533Z,60.89
2023-03-19T06:29:33.884Z,60.28
2023-03-19T06:30:36.714Z,60.04
2023-03-19T06:31:41.731Z,59.26
2023-03-19T06:32:44.188Z,59.22
2023-03-19T06:33:46.706Z,59.21
2023-03-19T06:34:49.087Z,59.47
2023-03-19T06:35:51.523Z,58.80
2023-03-19T06:36:54.040Z,58.86
2023-03-19T06:37:56.452Z,58.67
2023-03-19T06:38:58.986Z,58.64
2023-03-19T06:40:01.337Z,58.38
2023-03-19T06:41:03.944Z,57.88
2023-03-19T06:42:06.440Z,57.38
2023-03-19T06:43:09.514Z,57.17
2023-03-19T06:44:12.222Z,56.98
2023-03-19T06:45:21.724Z,57.06
2023-03-19T06:46:24.227Z,56.37
2023-03-19T06:47:27.166Z,56.02
2023-03-19T06:48:29.519Z,56.05
2023-03-19T06:49:32.561Z,55.83
2023-03-19T06:50:35.122Z,55.59
2023-03-19T06:51:37.695Z,54.83
2023-03-19T06:52:40.920Z,54.42
2023-03-19T06:53:43.299Z,54.18
2023-03-19T06:54:45.750Z,54.47
2023-03-19T06:55:48.057Z,54.31
2023-03-19T06:56:50.959Z,53.92
2023-03-19T06:57:53.303Z,53.62
2023-03-19T06:58:55.983Z,52.92
2023-03-19T06:59:58.370Z,52.88
2023-03-19T07:01:00.769Z,52.97
2023-03-19T07:02:03.342Z,52.98
2023-03-19T07:03:05.654Z,52.11
2023-03-19T07:04:08.893Z,51.69
2023-03-19T07:05:11.270Z,50.90
2023-03-19T07:06:13.695Z,50.60
2023-03-19T07:07:16.058Z,50.76
2023-03-19T07:08:18.486Z,49.94
2023-03-19T07:09:20.957Z,50.08
2023-03-19T07:10:23.325Z,50.36
2023-03-19T07:11:25.673Z,50.32
2023-03-19T07:12:28.096Z,50.15
2023-03-19T07:13:30.719Z,49.93
2023-03-19T07:14:33.059Z,50.34
2023-03-19T07:15:36.684Z,50.61
2023-03-19T07:16:39.162Z,50.47
2023-03-19T07:17:41.509Z,50.13
2023-03-19T07:18:43.876Z,49.49
2023-03-19T07:19:46.183Z,49.42
2023-03-19T07:20:48.533Z,49.65
2023-03-19T07:21:50.869Z,49.94
2023-03-19T07:22:53.690Z,50.16
2023-03-19T07:23:56.324Z,49.81
2023-03-19T07:24:58.674Z,49.61
2023-03-19T07:26:01.067Z,49.93
2023-03-19T07:27:03.508Z,50.21
2023-03-19T07:28:06.222Z,50.12
2023-03-19T07:29:08.744Z,50.29
2023-03-19T07:30:12.282Z,50.63
2023-03-19T07:31:14.752Z,50.13
2023-03-19T07:32:17.328Z,49.51
2023-03-19T07:33:21.160Z,49.72
2023-03-19T07:34:23.654Z,49.66
2023-03-19T07:35:26.771Z,49.45
2023-03-19T07:36:29.157Z,49.11
2023-03-19T07:37:31.881Z,49.34
2023-03-19T07:38:34.247Z,49.33
2023-03-19T07:39:36.579Z,49.08
2023-03-19T07:40:41.640Z,48.67
2023-03-19T07:41:48.594Z,48.96
2023-03-19T07:42:51.416Z,49.38
2023-03-19T07:43:53.811Z,49.23
2023-03-19T07:44:56.124Z,48.65
2023-03-19T07:45:59.273Z,47.98
2023-03-19T07:47:01.722Z,48.21
2023-03-19T07:48:04.436Z,48.38
2023-03-19T07:49:07.746Z,48.11
2023-03-19T07:50:10.842Z,47.84
2023-03-19T07:51:13.194Z,47.83
2023-03-19T07:52:15.622Z,48.11
2023-03-19T07:53:18.539Z,48.00
2023-03-19T07:54:21.778Z,48.30
2023-03-19T07:55:24.345Z,47.98
2023-03-19T07:56:26.758Z,47.68
2023-03-19T07:57:29.118Z,47.65
2023-03-19T07:58:31.765Z,47.45
2023-03-19T07:59:34.173Z,47.37
2023-03-19T08:00:36.925Z,47.96
2023-03-19T08:01:39.476Z,48.56
2023-03-19T08:02:42.916Z,48.88
2023-03-19T08:03:45.382Z,48.15
2023-03-19T08:04:47.929Z,47.07
2023-03-19T08:05:51.481Z,47.01
2023-03-19T08:06:53.838Z,47.34
2023-03-19T08:07:56.195Z,46.82
2023-03-19T08:08:58.534Z,46.72
2023-03-19T08:10:01.163Z,46.58
2023-03-19T08:11:03.958Z,46.58
2023-03-19T08:12:07.283Z,46.00
2023-03-19T08:13:17.099Z,46.03
2023-03-19T08:14:22.516Z,46.02
2023-03-19T08:15:24.885Z,46.24
2023-03-19T08:16:27.496Z,46.23
2023-03-19T08:17:29.971Z,46.05
2023-03-19T08:18:32.455Z,46.30
2023-03-19T08:19:34.777Z,46.76
2023-03-19T08:20:37.142Z,46.20
2023-03-19T08:21:39.469Z,45.85
2023-03-19T08:22:42.125Z,45.24
2023-03-19T08:23:44.747Z,44.97
2023-03-19T08:24:50.492Z,45.03
2023-03-19T08:25:54.665Z,44.23
2023-03-19T08:26:57.001Z,44.06
2023-03-19T08:28:02.180Z,44.50
2023-03-19T08:29:04.576Z,44.36
2023-03-19T08:30:08.477Z,44.45
2023-03-19T08:31:13.843Z,44.36
2023-03-19T08:32:16.349Z,44.22
2023-03-19T08:33:18.684Z,44.59
2023-03-19T08:34:21.996Z,44.82
2023-03-19T08:35:27.065Z,44.74
2023-03-19T08:36:29.513Z,45.36
2023-03-19T08:37:31.940Z,45.44
2023-03-19T08:38:34.467Z,45.08
2023-03-19T08:39:36.910Z,44.18
2023-03-19T08:40:39.282Z,44.09
2023-03-19T08:41:41.697Z,44.37
2023-03-19T08:42:45.345Z,44.15
2023-03-19T08:43:48.055Z,43.98
2023-03-19T08:44:50.664Z,44.01
2023-03-19T08:45:53.075Z,44.73
2023-03-19T08:46:55.705Z,44.74
2023-03-19T08:47:58.647Z,43.87
2023-03-19T08:49:01.068Z,43.64
2023-03-19T08:50:04.397Z,43.47
2023-03-19T08:51:06.734Z,44.13
2023-03-19T08:52:09.259Z,43.27
2023-03-19T08:53:11.629Z,42.79
2023-03-19T08:54:13.931Z,43.37
2023-03-19T08:55:17.153Z,43.04
2023-03-19T08:56:19.597Z,43.06
2023-03-19T08:57:22.016Z,42.73
2023-03-19T08:58:25.374Z,42.53
2023-03-19T08:59:28.364Z,42.75
2023-03-19T09:00:31.007Z,42.47
2023-03-19T09:01:33.493Z,42.17
2023-03-19T09:02:36.112Z,41.67
2023-03-19T09:03:39.622Z,42.21
2023-03-19T09:04:43.491Z,41.99
2023-03-19T09:05:46.278Z,41.81
2023-03-19T09:06:51.757Z,42.79
2023-03-19T09:07:54.081Z,42.09
2023-03-19T09:08:56.481Z,42.27
2023-03-19T09:09:58.843Z,41.53
2023-03-19T09:11:01.340Z,41.49
2023-03-19T09:12:03.785Z,41.95
2023-03-19T09:13:06.202Z,42.09
2023-03-19T09:14:08.637Z,41.71
2023-03-19T09:15:11.244Z,41.94
2023-03-19T09:16:13.733Z,42.25
2023-03-19T09:17:17.652Z,42.48
2023-03-19T09:18:20.908Z,41.98
2023-03-19T09:19:23.851Z,42.33
2023-03-19T09:20:26.268Z,42.66
2023-03-19T09:21:28.636Z,43.12
2023-03-19T09:22:31.335Z,42.70
2023-03-19T09:23:33.948Z,42.80
2023-03-19T09:24:38.247Z,41.38
2023-03-19T09:25:42.526Z,41.38
2023-03-19T09:26:46.015Z,41.76
2023-03-19T09:27:48.418Z,42.55
2023-03-19T09:28:51.736Z,42.36
2023-03-19T09:29:54.176Z,43.14
2023-03-19T09:30:58.585Z,42.50
2023-03-19T09:32:02.228Z,41.54
2023-03-19T09:33:05.825Z,41.95
2023-03-19T09:34:08.966Z,40.85
2023-03-19T09:35:14.394Z,41.08
2023-03-19T09:36:19.686Z,41.46
2023-03-19T09:37:22.337Z,40.90
2023-03-19T09:38:24.920Z,40.47
2023-03-19T09:39:27.440Z,40.64
2023-03-19T09:40:54.488Z,41.18
2023-03-19T09:42:33.444Z,40.88
2023-03-19T09:44:00.190Z,41.52
2023-03-19T09:45:03.241Z,40.84
2023-03-19T09:46:20.581Z,40.51
2023-03-19T09:47:31.702Z,40.43
2023-03-19T09:48:55.008Z,40.21
2023-03-19T09:50:02.148Z,40.61
2023-03-19T09:51:06.754Z,41.01
2023-03-19T09:52:44.469Z,41.37
2023-03-19T09:53:56.456Z,41.45
2023-03-19T09:55:19.914Z,40.98
2023-03-19T09:56:22.464Z,40.68
2023-03-19T09:57:25.400Z,40.37
2023-03-19T09:58:33.671Z,40.99
2023-03-19T09:59:36.813Z,41.60
2023-03-19T10:00:41.610Z,40.11
2023-03-19T10:02:09.450Z,40.96
2023-03-19T10:03:14.773Z,40.96
2023-03-19T10:04:36.748Z,40.10
2023-03-19T10:05:57.547Z,40.88
2023-03-19T10:07:12.367Z,40.69
2023-03-19T10:08:33.833Z,39.13
2023-03-19T10:09:44.994Z,40.76
2023-03-19T10:11:04.713Z,40.62
2023-03-19T10:12:20.407Z,41.14
2023-03-19T10:13:34.750Z,39.87
2023-03-19T10:15:11.468Z,39.57
2023-03-19T10:16:21.408Z,40.26
2023-03-19T10:17:34.848Z,40.10
2023-03-19T10:18:39.445Z,40.22
2023-03-19T10:19:52.107Z,39.94
2023-03-19T10:21:12.825Z,40.26
2023-03-19T10:22:21.407Z,40.25
2023-03-19T10:23:45.903Z,40.94
2023-03-19T10:24:50.748Z,40.66
2023-03-19T10:25:55.734Z,40.71
2023-03-19T10:27:05.204Z,40.46
2023-03-19T10:28:16.367Z,40.82
2023-03-19T10:29:21.285Z,40.51
2023-03-19T10:30:24.025Z,41.20
2023-03-19T10:31:30.625Z,41.04
2023-03-19T10:32:42.107Z,40.76
2023-03-19T10:34:00.050Z,40.55
2023-03-19T10:35:18.697Z,39.87
2023-03-19T10:36:27.982Z,40.94
2023-03-19T10:37:30.851Z,41.10
2023-03-19T10:38:33.715Z,40.52
2023-03-19T10:39:37.638Z,39.86
2023-03-19T10:40:51.770Z,39.44
2023-03-19T10:42:04.653Z,39.62
2023-03-19T10:43:17.350Z,39.30
2023-03-19T10:44:32.624Z,39.54
2023-03-19T10:45:38.675Z,39.67
2023-03-19T10:46:41.680Z,39.76
2023-03-19T10:47:44.283Z,39.31
2023-03-19T10:48:46.993Z,38.97
2023-03-19T10:49:50.984Z,38.98
2023-03-19T10:50:58.416Z,39.18
2023-03-19T10:52:01.039Z,38.46
2023-03-19T10:53:21.606Z,38.26
2023-03-19T10:54:25.869Z,38.34
2023-03-19T10:55:30.970Z,39.12
2023-03-19T10:56:34.440Z,39.11
2023-03-19T10:57:36.835Z,38.73
2023-03-19T10:58:40.438Z,38.42
2023-03-19T10:59:49.159Z,38.71
2023-03-19T11:01:00.202Z,38.90
2023-03-19T11:02:17.019Z,37.58
2023-03-19T11:03:36.913Z,37.53
2023-03-19T11:04:39.322Z,38.03
2023-03-19T11:05:41.708Z,38.32
2023-03-19T11:06:52.496Z,38.75
2023-03-19T11:07:58.335Z,37.70
2023-03-19T11:09:08.309Z,36.92
2023-03-19T11:10:17.916Z,37.41
2023-03-19T11:11:27.365Z,37.99
2023-03-19T11:12:37.751Z,37.52
2023-03-19T11:13:40.259Z,37.61
2023-03-19T11:14:46.531Z,37.39
2023-03-19T11:15:49.232Z,37.04
2023-03-19T11:17:31.756Z,37.12
2023-03-19T11:18:39.301Z,37.89
2023-03-19T11:19:43.970Z,37.52
2023-03-19T11:21:15.982Z,38.15
2023-03-19T11:22:24.812Z,38.07
2023-03-19T11:23:29.105Z,38.02
2023-03-19T11:24:33.888Z,37.36
2023-03-19T11:25:40.813Z,37.26
2023-03-19T11:26:47.761Z,37.34
2023-03-19T11:28:19.694Z,37.22
2023-03-19T11:29:23.938Z,37.26
2023-03-19T11:30:32.884Z,36.91
2023-03-19T11:31:40.924Z,37.44
2023-03-19T11:33:01.152Z,37.62
2023-03-19T11:34:57.048Z,37.55
2023-03-19T11:36:18.537Z,37.06
2023-03-19T11:37:39.629Z,37.31
2023-03-19T11:39:07.627Z,37.80
2023-03-19T11:40:19.059Z,37.83
2023-03-19T11:41:36.832Z,37.44
2023-03-19T11:43:13.070Z,37.17
2023-03-19T11:44:34.047Z,37.22
2023-03-19T11:45:47.483Z,36.62
2023-03-19T11:47:28.561Z,37.24
2023-03-19T11:51:01.936Z,37.04
2023-03-19T11:52:13.776Z,36.87
2023-03-19T11:53:27.188Z,37.29
2023-03-19T11:54:45.094Z,38.06
2023-03-19T11:55:54.069Z,37.74
2023-03-19T11:57:02.271Z,37.38
2023-03-19T11:58:13.344Z,38.01
2023-03-19T11:59:55.045Z,37.73
2023-03-19T12:00:57.712Z,36.78
2023-03-19T12:02:14.819Z,36.91
2023-03-19T12:03:42.111Z,36.59
2023-03-19T12:05:05.803Z,36.86
2023-03-19T12:06:11.104Z,36.21
2023-03-19T12:07:43.923Z,37.19
2023-03-19T12:08:56.489Z,37.14
2023-03-19T12:10:03.758Z,36.38
2023-03-19T12:11:09.322Z,35.98
2023-03-19T12:12:16.491Z,36.77
2023-03-19T12:13:45.833Z,36.16
2023-03-19T12:15:16.199Z,36.10
2023-03-19T12:16:18.645Z,35.16
2023-03-19T12:17:34.928Z,35.45
2023-03-19T12:19:05.306Z,35.68
2023-03-19T12:20:47.080Z,36.31
2023-03-19T12:22:04.606Z,35.94
2023-03-19T12:23:16.606Z,36.17
2023-03-19T12:24:28.772Z,36.45
2023-03-19T12:26:10.487Z,35.74
2023-03-19T12:27:39.254Z,35.68
2023-03-19T12:28:53.549Z,36.37
2023-03-19T12:30:08.245Z,36.09
2023-03-19T12:31:31.559Z,35.40
2023-03-19T12:32:42.332Z,35.10
2023-03-19T12:34:03.815Z,35.45
2023-03-19T12:35:13.924Z,35.69
2023-03-19T12:36:23.179Z,35.27
2023-03-19T12:37:29.482Z,34.86
2023-03-19T12:38:36.850Z,35.62
2023-03-19T12:39:45.656Z,35.38
2023-03-19T12:41:20.132Z,35.17
2023-03-19T12:42:28.680Z,34.98
2023-03-19T12:43:37.354Z,35.87
2023-03-19T12:44:44.323Z,36.42
2023-03-19T12:45:51.662Z,35.51
2023-03-19T12:47:02.834Z,35.12
2023-03-19T12:48:18.384Z,35.41
2023-03-19T12:49:48.588Z,35.64
2023-03-19T12:50:53.172Z,35.42
2023-03-19T12:52:02.211Z,35.77
2023-03-19T12:53:15.719Z,34.95
2023-03-19T12:54:22.209Z,35.04
2023-03-19T12:55:43.422Z,35.36
2023-03-19T12:57:04.424Z,35.33
2023-03-19T12:58:17.902Z,35.64
2023-03-19T12:59:57.128Z,35.22
2023-03-19T13:01:14.623Z,35.80
2023-03-19T13:02:54.429Z,35.49
2023-03-19T13:04:09.237Z,35.84
2023-03-19T13:05:38.964Z,36.10
2023-03-19T13:06:55.267Z,36.29
2023-03-19T13:07:59.775Z,35.39
2023-03-19T13:09:07.558Z,34.07
2023-03-19T13:10:15.229Z,34.81
2023-03-19T13:11:27.689Z,36.38
2023-03-19T13:12:33.243Z,36.53
2023-03-19T13:13:47.341Z,36.72
2023-03-19T13:15:12.056Z,36.25
2023-03-19T13:16:48.419Z,35.19
2023-03-19T13:18:22.794Z,35.14
2023-03-19T13:19:40.482Z,34.28
2023-03-19T13:21:18.699Z,34.34
2023-03-19T13:22:27.856Z,33.84
2023-03-19T13:23:34.209Z,34.44
2023-03-19T13:24:43.412Z,34.70
2023-03-19T13:25:48.696Z,34.39
2023-03-19T13:26:53.175Z,34.40
2023-03-19T13:27:56.226Z,34.67
2023-03-19T13:29:23.653Z,35.25
2023-03-19T13:30:26.415Z,34.61
2023-03-19T13:31:34.698Z,35.80
2023-03-19T13:32:39.628Z,34.83
2023-03-19T13:34:04.642Z,34.28
2023-03-19T13:35:27.407Z,33.80
2023-03-19T13:36:31.801Z,34.41
2023-03-19T13:37:34.209Z,34.57
2023-03-19T13:38:44.098Z,34.76
2023-03-19T13:39:48.567Z,34.93
2023-03-19T13:40:56.705Z,34.40
2023-03-19T13:42:26.585Z,34.82
2023-03-19T13:43:31.842Z,34.55
2023-03-19T13:44:57.235Z,34.45
2023-03-19T13:46:51.480Z,34.18
2023-03-19T13:47:54.773Z,34.22
2023-03-19T13:49:21.225Z,34.30
2023-03-19T13:50:27.332Z,33.53
2023-03-19T13:51:29.921Z,34.46
2023-03-19T13:52:32.276Z,33.89
2023-03-19T13:53:42.704Z,33.78
2023-03-19T13:54:46.582Z,34.28
2023-03-19T13:55:58.254Z,34.13
2023-03-19T13:57:04.342Z,34.49
2023-03-19T13:58:37.401Z,34.27
2023-03-19T13:59:43.902Z,34.21
2023-03-19T14:00:46.523Z,33.78
2023-03-19T14:01:49.035Z,33.87
2023-03-19T14:02:53.872Z,34.29
2023-03-19T14:04:25.194Z,34.95
2023-03-19T14:05:34.161Z,35.40
2023-03-19T14:06:39.196Z,35.35
2023-03-19T14:07:43.879Z,34.87
2023-03-19T14:08:51.833Z,34.57
2023-03-19T14:09:57.539Z,34.99
2023-03-19T14:11:01.971Z,34.11
2023-03-19T14:12:16.326Z,34.39
2023-03-19T14:13:32.466Z,34.73
2023-03-19T14:14:42.835Z,33.98
2023-03-19T14:15:50.212Z,34.50